createdAt,value
2022-10-05T00:01:56.805Z,11.06
2022-10-05T00:04:07.391Z,11.06
2022-10-05T00:06:14.170Z,11.07
2022-10-05T00:08:19.724Z,11.09
2022-10-05T00:10:22.803Z,11.13
2022-10-05T00:12:28.210Z,11.14
2022-10-05T00:14:33.478Z,11.11
2022-10-05T00:16:36.081Z,11.09
2022-10-05T00:18:39.440Z,11.07
2022-10-05T00:20:42.555Z,11.04
2022-10-05T00:22:46.997Z,11.04
2022-10-05T00:24:52.723Z,11.03
2022-10-05T00:26:58.092Z,11.02
2022-10-05T00:29:02.649Z,10.98
2022-10-05T00:31:15.860Z,10.95
2022-10-05T00:33:18.495Z,10.97
2022-10-05T00:35:21.525Z,10.95
2022-10-05T00:37:24.104Z,10.93
2022-10-05T00:39:29.888Z,10.90
2022-10-05T00:41:45.969Z,10.83
2022-10-05T00:44:38.364Z,10.81
2022-10-05T00:46:52.188Z,10.85
2022-10-05T00:49:04.898Z,10.80
2022-10-05T00:51:17.750Z,10.73
2022-10-05T00:53:34.794Z,10.72
2022-10-05T00:55:52.620Z,10.70
2022-10-05T00:58:09.211Z,10.67
2022-10-05T01:00:14.260Z,10.69
2022-10-05T01:02:25.063Z,10.68
2022-10-05T01:04:35.514Z,10.67
2022-10-05T01:06:48.959Z,10.66
2022-10-05T01:08:59.269Z,10.63
2022-10-05T01:11:11.733Z,10.59
2022-10-05T01:13:25.232Z,10.57
2022-10-05T01:15:34.489Z,10.56
2022-10-05T01:17:43.037Z,10.49
2022-10-05T01:20:02.643Z,10.45
2022-10-05T01:22:14.547Z,10.46
2022-10-05T01:24:36.365Z,10.40
2022-10-05T01:27:13.107Z,10.39
2022-10-05T01:29:22.650Z,10.31
2022-10-05T01:31:29.486Z,10.30
2022-10-05T01:33:38.807Z,10.29
2022-10-05T01:35:50.897Z,10.27
2022-10-05T01:38:05.609Z,10.27
2022-10-05T01:40:15.469Z,10.26
2022-10-05T01:42:27.222Z,10.25
2022-10-05T01:44:37.381Z,10.24
2022-10-05T01:46:45.524Z,10.18
2022-10-05T01:49:00.199Z,10.17
2022-10-05T01:51:12.373Z,10.11
2022-10-05T01:53:25.799Z,10.07
2022-10-05T01:55:35.098Z,10.07
2022-10-05T01:57:47.919Z,10.05
2022-10-05T02:00:04.690Z,10.00
2022-10-05T02:02:12.909Z,10.01
2022-10-05T02:04:42.722Z,10.01
2022-10-05T02:06:44.827Z,9.99
2022-10-05T02:08:53.911Z,10.00
2022-10-05T02:11:00.648Z,10.01
2022-10-05T02:13:08.130Z,9.99
2022-10-05T02:15:15.740Z,9.98
2022-10-05T02:17:23.328Z,9.96
2022-10-05T02:19:34.153Z,9.94
2022-10-05T02:21:37.490Z,9.91
2022-10-05T02:23:43.968Z,9.91
2022-10-05T02:25:48.577Z,9.87
2022-10-05T02:27:54.672Z,9.85
2022-10-05T02:30:02.509Z,9.83
2022-10-05T02:32:12.309Z,9.80
2022-10-05T02:34:23.146Z,9.76
2022-10-05T02:36:34.488Z,9.77
2022-10-05T02:38:47.808Z,9.79
2022-10-05T02:41:02.570Z,9.75
2022-10-05T02:43:14.731Z,9.74
2022-10-05T02:45:26.627Z,9.71
2022-10-05T02:47:34.395Z,9.65
2022-10-05T02:49:43.514Z,9.65
2022-10-05T02:51:52.282Z,9.66
2022-10-05T02:54:04.837Z,9.64
2022-10-05T02:56:17.515Z,9.66
2022-10-05T02:58:24.324Z,9.65
2022-10-05T03:00:31.446Z,9.62
2022-10-05T03:02:42.476Z,9.68
2022-10-05T03:04:57.357Z,9.64
2022-10-05T03:07:11.604Z,9.61
2022-10-05T03:09:17.569Z,9.60
2022-10-05T03:11:31.457Z,9.56
2022-10-05T03:13:44.353Z,9.55
2022-10-05T03:15:59.852Z,9.49
2022-10-05T03:18:15.265Z,9.47
2022-10-05T03:20:31.181Z,9.49
2022-10-05T03:22:45.306Z,9.46
2022-10-05T03:25:15.149Z,9.45
2022-10-05T03:27:33.231Z,9.43
2022-10-05T03:29:41.661Z,9.41
2022-10-05T03:31:50.354Z,9.45
2022-10-05T03:34:00.724Z,9.43
2022-10-05T03:36:12.919Z,9.41
2022-10-05T03:38:20.790Z,9.38
2022-10-05T03:40:30.755Z,9.34
2022-10-05T03:42:44.293Z,9.33
2022-10-05T03:44:53.328Z,9.32
2022-10-05T03:47:06.723Z,9.25
2022-10-05T03:49:18.129Z,9.21
2022-10-05T03:51:25.529Z,9.20
2022-10-05T03:53:32.133Z,9.15
2022-10-05T03:55:41.988Z,9.11
2022-10-05T03:57:46.743Z,9.14
2022-10-05T03:59:58.457Z,9.12
2022-10-05T04:02:03.565Z,9.09
2022-10-05T04:04:12.430Z,9.11
2022-10-05T04:06:21.987Z,9.12
2022-10-05T04:08:32.579Z,9.14
2022-10-05T04:10:42.440Z,9.26
2022-10-05T04:12:50.016Z,9.24
2022-10-05T04:14:55.723Z,9.21
2022-10-05T04:17:02.554Z,9.21
2022-10-05T04:19:14.643Z,9.24
2022-10-05T04:21:24.946Z,9.24
2022-10-05T04:23:39.627Z,9.30
2022-10-05T04:25:47.280Z,9.26
2022-10-05T04:27:56.174Z,9.20
2022-10-05T04:30:08.120Z,9.21
2022-10-05T04:32:26.930Z,9.18
2022-10-05T04:34:48.136Z,9.18
2022-10-05T04:36:59.254Z,9.20
2022-10-05T04:39:13.040Z,9.23
2022-10-05T04:41:29.256Z,9.29
2022-10-05T04:43:43.397Z,9.25
2022-10-05T04:45:59.813Z,9.22
2022-10-05T04:48:35.122Z,9.17
2022-10-05T04:50:50.471Z,9.11
2022-10-05T04:53:03.215Z,9.07
2022-10-05T04:55:13.428Z,9.07
2022-10-05T04:57:24.163Z,9.04
2022-10-05T04:59:46.816Z,8.98
2022-10-05T05:02:06.630Z,8.95
2022-10-05T05:04:33.509Z,8.97
2022-10-05T05:06:41.029Z,8.89
2022-10-05T05:09:05.793Z,8.89
2022-10-05T05:11:24.620Z,8.87
2022-10-05T05:13:51.220Z,8.87
2022-10-05T05:16:02.179Z,8.86
2022-10-05T05:18:34.190Z,8.82
2022-10-05T05:20:52.473Z,8.83
2022-10-05T05:23:03.495Z,8.77
2022-10-05T05:25:23.819Z,8.75
2022-10-05T05:27:41.332Z,8.73
2022-10-05T05:29:57.958Z,8.67
2022-10-05T05:32:10.414Z,8.66
2022-10-05T05:34:30.312Z,8.64
2022-10-05T05:36:49.235Z,8.64
2022-10-05T05:39:05.951Z,8.63
2022-10-05T05:41:13.051Z,8.63
2022-10-05T05:43:25.372Z,8.61
2022-10-05T05:45:38.563Z,8.59
2022-10-05T05:47:47.016Z,8.63
2022-10-05T05:52:40.033Z,8.58
2022-10-05T05:54:47.740Z,8.62
2022-10-05T05:56:58.130Z,8.62
2022-10-05T05:59:07.849Z,8.63
2022-10-05T06:01:32.314Z,8.63
2022-10-05T06:03:40.533Z,8.57
2022-10-05T06:05:49.528Z,8.59
2022-10-05T06:07:54.882Z,8.60
2022-10-05T06:10:02.464Z,8.60
2022-10-05T06:12:11.993Z,8.62
2022-10-05T06:14:20.165Z,8.64
2022-10-05T06:16:27.318Z,8.66
2022-10-05T06:18:33.101Z,8.65
2022-10-05T06:20:41.041Z,8.68
2022-10-05T06:22:46.605Z,8.72
2022-10-05T06:24:58.857Z,8.74
2022-10-05T06:27:27.813Z,8.73
2022-10-05T06:29:46.010Z,8.75
2022-10-05T06:32:05.349Z,8.82
2022-10-05T06:34:20.348Z,8.85
2022-10-05T06:36:36.389Z,8.90
2022-10-05T06:38:54.407Z,8.97
2022-10-05T06:41:12.864Z,9.01
2022-10-05T06:43:35.940Z,9.01
2022-10-05T06:45:55.396Z,9.06
2022-10-05T06:48:08.433Z,9.12
2022-10-05T06:50:20.087Z,9.11
2022-10-05T06:52:30.240Z,9.16
2022-10-05T06:54:44.316Z,9.20
2022-10-05T06:56:54.642Z,9.26
2022-10-05T06:59:06.539Z,9.29
2022-10-05T07:01:15.261Z,9.31
2022-10-05T07:03:28.930Z,9.38
2022-10-05T07:05:57.809Z,9.46
2022-10-05T07:08:03.953Z,9.51
2022-10-05T07:10:18.387Z,9.57
2022-10-05T07:12:37.909Z,9.63
2022-10-05T07:14:54.897Z,9.70
2022-10-05T07:17:18.148Z,9.76
2022-10-05T07:19:33.611Z,9.82
2022-10-05T07:21:45.988Z,9.88
2022-10-05T07:23:57.523Z,9.94
2022-10-05T07:26:06.673Z,10.02
2022-10-05T07:28:18.694Z,10.08
2022-10-05T07:30:21.728Z,10.15
2022-10-05T07:32:34.858Z,10.21
2022-10-05T07:34:50.316Z,10.27
2022-10-05T07:37:18.081Z,10.33
2022-10-05T07:39:42.049Z,10.41
2022-10-05T07:41:57.913Z,10.45
2022-10-05T07:44:12.894Z,10.50
2022-10-05T07:46:23.242Z,10.57
2022-10-05T07:48:33.388Z,10.65
2022-10-05T07:50:41.595Z,10.69
2022-10-05T07:52:50.753Z,10.74
2022-10-05T07:55:03.832Z,10.79
2022-10-05T07:57:16.707Z,10.84
2022-10-05T07:59:30.870Z,10.89
2022-10-05T08:01:36.568Z,10.94
2022-10-05T08:03:49.348Z,10.99
2022-10-05T08:05:51.942Z,11.03
2022-10-05T08:08:00.293Z,11.09
2022-10-05T08:10:17.739Z,11.11
2022-10-05T08:12:25.946Z,11.14
2022-10-05T08:14:35.837Z,11.18
2022-10-05T08:16:39.568Z,11.24
2022-10-05T08:18:54.703Z,11.27
2022-10-05T08:20:59.525Z,11.34
2022-10-05T08:23:14.169Z,11.37
2022-10-05T08:25:25.755Z,11.43
2022-10-05T08:27:40.098Z,11.49
2022-10-05T08:29:50.702Z,11.54
2022-10-05T08:31:57.212Z,11.57
2022-10-05T08:34:11.202Z,11.62
2022-10-05T08:36:16.853Z,11.66
2022-10-05T08:38:22.508Z,11.70
2022-10-05T08:40:45.370Z,11.73
2022-10-05T08:43:18.306Z,11.76
2022-10-05T08:45:45.580Z,11.79
2022-10-05T08:48:32.068Z,11.82
2022-10-05T08:50:57.910Z,11.86
2022-10-05T08:53:36.795Z,11.93
2022-10-05T08:55:48.036Z,11.94
2022-10-05T08:58:31.984Z,11.94
2022-10-05T09:00:49.176Z,11.97
2022-10-05T09:03:08.755Z,11.99
2022-10-05T09:05:29.101Z,12.01
2022-10-05T09:08:11.563Z,12.06
2022-10-05T09:10:54.962Z,12.12
2022-10-05T09:13:18.393Z,12.16
2022-10-05T09:15:38.044Z,12.19
2022-10-05T09:18:12.049Z,12.21
2022-10-05T09:20:32.221Z,12.21
2022-10-05T09:22:59.156Z,12.22
2022-10-05T09:25:15.592Z,12.25
2022-10-05T09:27:19.497Z,12.29
2022-10-05T09:29:59.522Z,12.32
2022-10-05T09:32:25.041Z,12.39
2022-10-05T09:35:00.649Z,12.45
2022-10-05T09:37:39.896Z,12.50
2022-10-05T09:40:12.398Z,12.57
2022-10-05T09:42:46.141Z,12.61
2022-10-05T09:45:21.182Z,12.65
2022-10-05T09:47:50.756Z,12.70
2022-10-05T09:50:07.651Z,12.76
2022-10-05T09:52:28.340Z,12.84
2022-10-05T09:55:01.219Z,12.90
2022-10-05T09:57:48.171Z,12.94
2022-10-05T10:00:21.590Z,12.98
2022-10-05T10:02:43.361Z,12.99
2022-10-05T10:05:07.470Z,12.97
2022-10-05T10:07:42.146Z,12.97
2022-10-05T10:09:56.755Z,12.95
2022-10-05T10:12:20.155Z,13.00
2022-10-05T10:15:10.981Z,13.07
2022-10-05T10:17:30.008Z,13.10
2022-10-05T10:19:58.927Z,13.13
2022-10-05T10:22:20.920Z,13.15
2022-10-05T10:24:33.072Z,13.20
2022-10-05T10:27:16.348Z,13.19
2022-10-05T10:29:50.971Z,13.21
2022-10-05T10:32:09.626Z,13.24
2022-10-05T10:34:57.587Z,13.31
2022-10-05T10:37:32.689Z,13.38
2022-10-05T10:39:54.003Z,13.42
2022-10-05T10:42:25.293Z,13.49
2022-10-05T10:45:04.562Z,13.51
2022-10-05T10:47:39.226Z,13.56
2022-10-05T10:50:05.974Z,13.57
2022-10-05T10:52:22.502Z,13.56
2022-10-05T10:55:04.808Z,13.59
2022-10-05T10:57:10.222Z,13.65
2022-10-05T10:59:45.845Z,13.65
2022-10-05T11:02:02.467Z,13.63
2022-10-05T11:04:36.033Z,13.62
2022-10-05T11:07:16.590Z,13.59
2022-10-05T11:09:35.919Z,13.61
2022-10-05T11:12:21.922Z,13.79
2022-10-05T11:14:52.868Z,13.79
2022-10-05T11:17:15.541Z,13.83
2022-10-05T11:19:59.519Z,13.86
2022-10-05T11:22:20.118Z,13.88
2022-10-05T11:24:43.334Z,14.01
2022-10-05T11:27:11.172Z,14.04
2022-10-05T11:29:46.112Z,14.08
2022-10-05T11:32:08.713Z,14.22
2022-10-05T11:34:46.301Z,14.49
2022-10-05T11:37:14.641Z,14.78
2022-10-05T11:39:37.062Z,14.87
2022-10-05T11:42:10.981Z,14.94
2022-10-05T11:44:42.927Z,15.00
2022-10-05T11:46:56.423Z,15.05
2022-10-05T11:49:23.317Z,15.08
2022-10-05T11:51:39.364Z,15.05
2022-10-05T11:53:46.261Z,15.03
2022-10-05T11:56:06.359Z,15.05
2022-10-05T11:58:17.194Z,15.20
2022-10-05T12:00:22.194Z,15.23
2022-10-05T12:02:58.287Z,15.62
2022-10-05T12:05:12.224Z,15.78
2022-10-05T12:07:25.495Z,16.10
2022-10-05T12:10:06.923Z,16.36
2022-10-05T12:12:17.920Z,16.49
2022-10-05T12:14:28.409Z,16.61
2022-10-05T12:16:37.839Z,16.75
2022-10-05T12:18:50.976Z,16.83
2022-10-05T12:20:59.727Z,17.11
2022-10-05T12:23:12.482Z,17.00
2022-10-05T12:25:28.066Z,17.31
2022-10-05T12:27:37.137Z,17.69
2022-10-05T12:29:45.434Z,17.73
2022-10-05T12:31:57.745Z,17.74
2022-10-05T12:34:09.447Z,17.55
2022-10-05T12:36:16.505Z,17.81
2022-10-05T12:38:28.584Z,17.99
2022-10-05T12:40:41.162Z,18.24
2022-10-05T12:42:51.455Z,18.06
2022-10-05T12:45:10.704Z,18.01
2022-10-05T12:47:23.677Z,18.10
2022-10-05T12:49:51.298Z,18.18
2022-10-05T12:51:58.605Z,18.26
2022-10-05T12:54:10.397Z,18.76
2022-10-05T12:56:17.121Z,18.75
2022-10-05T12:58:30.113Z,18.72
2022-10-05T13:00:38.154Z,18.84
2022-10-05T13:02:46.512Z,18.80
2022-10-05T13:04:56.245Z,18.77
2022-10-05T13:07:18.317Z,18.81
2022-10-05T13:09:30.064Z,18.68
2022-10-05T13:11:35.631Z,18.74
2022-10-05T13:13:48.349Z,18.83
2022-10-05T13:15:56.369Z,19.42
2022-10-05T13:18:14.170Z,19.55
2022-10-05T13:20:28.039Z,19.43
2022-10-05T13:22:37.101Z,19.50
2022-10-05T13:24:49.568Z,19.82
2022-10-05T13:26:56.022Z,20.12
2022-10-05T13:29:04.252Z,20.07
2022-10-05T13:31:12.953Z,20.10
2022-10-05T13:33:20.317Z,20.38
2022-10-05T13:35:40.257Z,20.45
2022-10-05T13:37:54.127Z,20.57
2022-10-05T13:40:07.304Z,20.68
2022-10-05T13:42:14.241Z,20.87
2022-10-05T13:44:26.164Z,20.98
2022-10-05T13:46:37.298Z,21.17
2022-10-05T13:48:52.765Z,21.36
2022-10-05T13:53:14.001Z,21.80
2022-10-05T13:55:30.350Z,21.92
2022-10-05T13:57:46.087Z,22.44
2022-10-05T13:59:54.394Z,22.39
2022-10-05T14:02:00.233Z,22.53
2022-10-05T14:04:11.054Z,22.54
2022-10-05T14:06:27.599Z,22.66
2022-10-05T14:08:33.885Z,22.72
2022-10-05T14:10:40.757Z,22.74
2022-10-05T14:12:45.735Z,22.92
2022-10-05T14:14:50.852Z,22.90
2022-10-05T14:16:55.380Z,22.98
2022-10-05T14:19:10.098Z,23.08
2022-10-05T14:21:22.074Z,23.03
2022-10-05T14:23:26.919Z,23.06
2022-10-05T14:25:31.499Z,23.03
2022-10-05T14:27:37.336Z,22.95
2022-10-05T14:29:40.117Z,22.94
2022-10-05T14:31:50.328Z,22.95
2022-10-05T14:33:53.039Z,22.96
2022-10-05T14:35:58.001Z,23.04
2022-10-05T14:38:02.734Z,23.04
2022-10-05T14:40:24.299Z,23.07
2022-10-05T14:42:29.471Z,23.00
2022-10-05T14:44:34.811Z,22.98
2022-10-05T14:46:38.559Z,23.00
2022-10-05T14:48:43.035Z,22.98
2022-10-05T14:50:57.567Z,22.90
2022-10-05T14:53:17.485Z,22.78
2022-10-05T14:55:33.721Z,22.69
2022-10-05T14:57:45.078Z,22.55
2022-10-05T15:00:01.519Z,22.44
2022-10-05T15:02:24.281Z,22.29
2022-10-05T15:04:43.675Z,22.15
2022-10-05T15:06:57.622Z,22.03
2022-10-05T15:09:31.505Z,22.02
2022-10-05T15:11:38.714Z,21.98
2022-10-05T15:13:44.293Z,21.91
2022-10-05T15:15:54.601Z,21.92
2022-10-05T15:18:02.140Z,21.94
2022-10-05T15:20:19.473Z,21.96
2022-10-05T15:22:31.654Z,22.08
2022-10-05T15:24:44.255Z,22.17
2022-10-05T15:26:52.660Z,22.09
2022-10-05T15:29:01.135Z,21.98
2022-10-05T15:31:11.280Z,22.05
2022-10-05T15:33:21.516Z,22.05
2022-10-05T15:35:49.674Z,22.16
2022-10-05T15:37:57.035Z,22.09
2022-10-05T15:40:02.235Z,22.04
2022-10-05T15:42:10.999Z,21.92
2022-10-05T15:44:26.023Z,21.92
2022-10-05T15:46:36.563Z,21.85
2022-10-05T15:48:49.380Z,21.78
2022-10-05T15:50:56.819Z,21.70
2022-10-05T15:53:11.931Z,21.78
2022-10-05T15:55:35.322Z,21.85
2022-10-05T15:57:46.441Z,21.65
2022-10-05T16:00:01.898Z,21.51
2022-10-05T16:02:17.186Z,21.45
2022-10-05T16:04:26.757Z,21.31
2022-10-05T16:06:56.125Z,21.19
2022-10-05T16:09:09.207Z,21.05
2022-10-05T16:11:20.630Z,20.94
2022-10-05T16:13:34.043Z,20.82
2022-10-05T16:15:43.621Z,20.66
2022-10-05T16:18:02.428Z,20.51
2022-10-05T16:20:18.610Z,20.36
2022-10-05T16:22:29.138Z,20.22
2022-10-05T16:24:51.635Z,20.09
2022-10-05T16:26:59.495Z,19.96
2022-10-05T16:29:10.376Z,19.85
2022-10-05T16:31:19.909Z,19.73
2022-10-05T16:33:33.212Z,19.61
2022-10-05T16:35:46.721Z,19.53
2022-10-05T16:38:00.642Z,19.44
2022-10-05T16:40:08.508Z,19.35
2022-10-05T16:42:19.470Z,19.26
2022-10-05T16:44:34.258Z,19.19
2022-10-05T16:46:42.546Z,19.10
2022-10-05T16:48:56.274Z,19.03
2022-10-05T16:51:24.074Z,18.98
2022-10-05T16:53:31.927Z,18.93
2022-10-05T16:55:38.416Z,18.88
2022-10-05T16:57:46.425Z,18.81
2022-10-05T17:00:12.179Z,18.72
2022-10-05T17:02:31.036Z,18.66
2022-10-05T17:04:46.042Z,18.60
2022-10-05T17:07:36.356Z,18.53
2022-10-05T17:09:59.344Z,18.50
2022-10-05T17:12:16.766Z,18.44
2022-10-05T17:14:31.852Z,18.36
2022-10-05T17:16:48.438Z,18.23
2022-10-05T17:19:19.242Z,18.11
2022-10-05T17:21:30.987Z,18.02
2022-10-05T17:23:39.881Z,17.98
2022-10-05T17:25:46.663Z,17.92
2022-10-05T17:27:54.036Z,17.85
2022-10-05T17:30:22.055Z,17.77
2022-10-05T17:32:39.453Z,17.74
2022-10-05T17:35:18.229Z,17.72
2022-10-05T17:37:36.477Z,17.67
2022-10-05T17:39:51.277Z,17.66
2022-10-05T17:41:53.991Z,17.64
2022-10-05T17:44:28.360Z,17.59
2022-10-05T17:46:39.217Z,17.56
2022-10-05T17:49:12.446Z,17.52
2022-10-05T17:51:56.458Z,17.49
2022-10-05T17:54:18.051Z,17.43
2022-10-05T17:56:22.361Z,17.42
2022-10-05T17:59:01.669Z,17.40
2022-10-05T18:01:14.260Z,17.38
2022-10-05T18:03:41.862Z,17.34
2022-10-05T18:05:46.326Z,17.33
2022-10-05T18:08:09.580Z,17.30
2022-10-05T18:10:28.922Z,17.25
2022-10-05T18:12:49.108Z,17.21
2022-10-05T18:14:57.170Z,17.17
2022-10-05T18:17:01.687Z,17.17
2022-10-05T18:19:16.609Z,17.15
2022-10-05T18:21:39.796Z,17.13
2022-10-05T18:23:50.000Z,17.10
2022-10-05T18:26:02.991Z,17.08
2022-10-05T18:28:17.853Z,17.04
2022-10-05T18:30:23.410Z,17.01
2022-10-05T18:32:33.596Z,16.96
2022-10-05T18:34:43.335Z,16.90
2022-10-05T18:37:14.857Z,16.85
2022-10-05T18:39:30.670Z,16.79
2022-10-05T18:41:45.508Z,16.75
2022-10-05T18:43:59.671Z,16.70
2022-10-05T18:46:17.174Z,16.67
2022-10-05T18:48:29.201Z,16.64
2022-10-05T18:50:39.795Z,16.59
2022-10-05T18:52:53.184Z,16.57
2022-10-05T18:55:07.306Z,16.54
2022-10-05T18:57:45.974Z,16.49
2022-10-05T18:59:55.776Z,16.48
2022-10-05T19:02:10.880Z,16.44
2022-10-05T19:04:25.548Z,16.41
2022-10-05T19:06:31.690Z,16.39
2022-10-05T19:08:43.645Z,16.35
2022-10-05T19:10:52.624Z,16.32
2022-10-05T19:13:07.444Z,16.33
2022-10-05T19:15:18.094Z,16.30
2022-10-05T19:17:26.209Z,16.26
2022-10-05T19:19:43.916Z,16.28
2022-10-05T19:21:56.860Z,16.21
2022-10-05T19:24:18.526Z,16.16
2022-10-05T19:26:36.749Z,16.12
2022-10-05T19:28:50.273Z,16.08
2022-10-05T19:31:05.169Z,16.06
2022-10-05T19:33:27.248Z,16.02
2022-10-05T19:35:39.201Z,15.98
2022-10-05T19:37:54.476Z,15.96
2022-10-05T19:40:08.806Z,15.96
2022-10-05T19:42:26.383Z,16.03
2022-10-05T19:44:47.793Z,15.99
2022-10-05T19:46:59.536Z,15.95
2022-10-05T19:51:27.276Z,15.86
2022-10-05T19:53:33.221Z,15.82
2022-10-05T19:55:37.810Z,15.81
2022-10-05T19:57:48.256Z,15.81
2022-10-05T19:59:50.822Z,15.76
2022-10-05T20:01:55.877Z,15.74
2022-10-05T20:03:59.264Z,15.71
2022-10-05T20:06:03.335Z,15.68
2022-10-05T20:08:08.410Z,15.68
2022-10-05T20:10:29.043Z,15.67
2022-10-05T20:12:54.445Z,15.65
2022-10-05T20:15:26.065Z,15.65
2022-10-05T20:17:46.893Z,15.64
2022-10-05T20:20:18.765Z,15.63
2022-10-05T20:22:34.236Z,15.62
2022-10-05T20:24:50.700Z,15.60
2022-10-05T20:27:05.177Z,15.58
2022-10-05T20:29:09.703Z,15.56
2022-10-05T20:31:14.402Z,15.51
2022-10-05T20:34:56.541Z,15.46
2022-10-05T20:37:42.117Z,15.48
2022-10-05T20:46:42.055Z,15.35
2022-10-05T20:48:45.753Z,15.32
2022-10-05T20:50:48.513Z,15.30
2022-10-05T20:52:51.195Z,15.26
2022-10-05T20:57:00.972Z,15.22
2022-10-05T20:59:03.627Z,15.20
2022-10-05T21:01:19.885Z,15.18
2022-10-05T21:03:22.813Z,15.14
2022-10-05T21:05:25.556Z,15.09
2022-10-05T21:09:04.146Z,15.06
2022-10-05T21:11:09.104Z,15.04
2022-10-05T21:13:11.829Z,14.97
2022-10-05T21:15:14.441Z,15.02
2022-10-05T21:17:17.023Z,14.98
2022-10-05T21:19:19.795Z,14.90
2022-10-05T21:21:22.715Z,14.84
2022-10-05T21:23:25.274Z,14.83
2022-10-05T21:25:29.314Z,14.81
2022-10-05T21:27:32.251Z,14.78
2022-10-05T21:29:36.500Z,14.78
2022-10-05T21:31:39.375Z,14.76
2022-10-05T21:33:42.045Z,14.91
2022-10-05T21:35:44.765Z,14.87
2022-10-05T21:37:47.420Z,14.89
2022-10-05T21:39:50.040Z,14.86
2022-10-05T21:41:53.978Z,14.79
2022-10-05T21:43:56.661Z,14.78
2022-10-05T21:45:59.454Z,14.72
2022-10-05T21:48:02.266Z,14.72
2022-10-05T21:50:06.131Z,14.70
2022-10-05T21:52:11.420Z,14.72
2022-10-05T21:54:16.546Z,14.73
2022-10-05T21:56:21.873Z,14.71
2022-10-05T21:58:28.840Z,14.69
2022-10-05T22:00:32.158Z,14.66
2022-10-05T22:02:34.954Z,14.65
2022-10-05T22:04:37.532Z,14.61
2022-10-05T22:06:40.286Z,14.62
2022-10-05T22:08:42.907Z,14.57
2022-10-05T22:10:45.492Z,14.55
2022-10-05T22:12:48.105Z,14.55
2022-10-05T22:14:52.028Z,14.54
2022-10-05T22:16:55.241Z,14.52
2022-10-05T22:18:58.423Z,14.50
2022-10-05T22:21:00.964Z,14.52
2022-10-05T22:23:03.681Z,14.49
2022-10-05T22:25:07.027Z,14.41
2022-10-05T22:27:09.721Z,14.38
2022-10-05T22:29:12.755Z,14.38
2022-10-05T22:31:16.961Z,14.37
2022-10-05T22:33:19.581Z,14.38
2022-10-05T22:35:22.272Z,14.33
2022-10-05T22:37:24.936Z,14.32
2022-10-05T22:39:27.694Z,14.31
2022-10-05T22:41:30.443Z,14.31
2022-10-05T22:43:32.980Z,14.30
2022-10-05T22:45:35.655Z,14.29
2022-10-05T22:47:39.569Z,14.26
2022-10-05T22:49:42.127Z,14.25
2022-10-05T22:51:44.677Z,14.23
2022-10-05T22:53:47.339Z,14.19
2022-10-05T22:55:49.951Z,14.17
2022-10-05T22:57:52.572Z,14.17
2022-10-05T22:59:55.152Z,14.19
2022-10-05T23:01:58.106Z,14.14
2022-10-05T23:04:02.197Z,14.13
2022-10-05T23:06:07.175Z,14.09
2022-10-05T23:08:09.839Z,14.11
2022-10-05T23:10:15.145Z,14.10
2022-10-05T23:12:17.743Z,14.09
2022-10-05T23:14:20.339Z,14.10
2022-10-05T23:16:24.294Z,14.06
2022-10-05T23:18:27.521Z,14.08
2022-10-05T23:20:31.706Z,14.07
2022-10-05T23:22:36.877Z,14.06
2022-10-05T23:24:39.427Z,14.05
2022-10-05T23:26:42.008Z,14.03
2022-10-05T23:28:47.126Z,14.02
2022-10-05T23:30:49.847Z,14.00
2022-10-05T23:32:52.453Z,13.95
2022-10-05T23:34:55.041Z,13.90
2022-10-05T23:36:58.968Z,13.87
2022-10-05T23:39:01.663Z,13.85
2022-10-05T23:41:05.498Z,13.84
2022-10-05T23:43:08.091Z,13.82
2022-10-05T23:45:12.249Z,13.81
2022-10-05T23:47:14.870Z,13.77
2022-10-05T23:49:17.469Z,13.73
2022-10-05T23:51:20.070Z,13.70
2022-10-05T23:53:24.787Z,13.69
2022-10-05T23:55:27.363Z,13.68
2022-10-05T23:57:29.965Z,13.68
2022-10-05T23:59:32.529Z,13.70
